Time;durP1;ratioP1;P1;durP2;ratioP2;P2;SDS_P1;SDS_P2;PMS_P1;PMS_P2;Temp;Humidity;BMP_temperature;BMP_pressure;BME280_temperature;BME280_humidity;BME280_pressure;Samples;Min_cycle;Max_cycle;Signal;HPM_P1;HPM_P2
2022/06/03 00:01:33;;;;;;;5.50;4.20;;;11.80;99.90;;;;;;5050361;28;20169;-67
2022/06/03 00:04:34;;;;;;;8.30;4.32;;;11.60;99.90;;;;;;5041709;28;20057;-67
2022/06/03 00:07:21;;;;;;;6.60;3.90;;;11.40;99.90;;;;;;5045845;28;20100;-67
2022/06/03 00:10:03;;;;;;;7.13;4.05;;;11.20;99.90;;;;;;5046484;28;20055;-67
2022/06/03 00:12:47;;;;;;;8.07;4.40;;;11.30;99.90;;;;;;5046403;28;20063;-67
2022/06/03 00:15:26;;;;;;;6.85;4.15;;;11.00;99.90;;;;;;5047185;28;20103;-67
2022/06/03 00:17:55;;;;;;;4.70;4.15;;;11.20;99.90;;;;;;5046541;28;20102;-67
2022/06/03 00:20:47;;;;;;;6.40;4.43;;;11.00;99.90;;;;;;5050045;28;20052;-67
2022/06/03 00:23:38;;;;;;;6.28;4.05;;;11.00;99.90;;;;;;5067932;28;20107;-67
2022/06/03 00:26:25;;;;;;;5.93;3.75;;;11.10;99.90;;;;;;5049588;28;20053;-67
2022/06/03 00:29:17;;;;;;;8.55;4.65;;;11.20;99.90;;;;;;5057341;28;20053;-67
2022/06/03 00:32:04;;;;;;;5.88;4.05;;;11.30;99.90;;;;;;5024498;28;20563;-67
2022/06/03 00:34:59;;;;;;;4.43;4.03;;;11.10;99.90;;;;;;5050894;28;20037;-67
2022/06/03 00:37:49;;;;;;;4.97;3.88;;;11.10;99.90;;;;;;5033719;28;20061;-67
2022/06/03 00:40:30;;;;;;;6.10;4.15;;;11.10;99.90;;;;;;5064261;28;20128;-67
2022/06/03 00:43:23;;;;;;;4.28;3.88;;;11.00;99.90;;;;;;5067462;28;20045;-67
2022/06/03 00:45:48;;;;;;;4.40;4.00;;;10.90;99.90;;;;;;5058604;28;20049;-67
2022/06/03 00:48:52;;;;;;;4.88;4.35;;;10.60;99.90;;;;;;5067022;28;20163;-67
2022/06/03 00:51:33;;;;;;;8.40;4.75;;;10.50;99.90;;;;;;5025511;28;20125;-67
2022/06/03 00:54:07;;;;;;;6.95;4.95;;;10.50;99.90;;;;;;5042940;28;20053;-67
2022/06/03 00:56:48;;;;;;;5.95;4.63;;;10.50;99.90;;;;;;5042128;28;20069;-67
2022/06/03 00:59:58;;;;;;;7.15;4.18;;;10.60;99.90;;;;;;5025206;28;20050;-67
2022/06/03 01:03:02;;;;;;;5.70;4.55;;;10.60;99.90;;;;;;4969442;28;20057;-67
2022/06/03 01:05:34;;;;;;;6.93;4.90;;;10.50;99.90;;;;;;4969565;28;20059;-67
2022/06/03 01:08:14;;;;;;;6.97;5.15;;;10.50;99.90;;;;;;4985591;28;20038;-67
2022/06/03 01:11:07;;;;;;;10.07;5.80;;;10.50;99.90;;;;;;4985426;28;20062;-67
2022/06/03 01:13:54;;;;;;;7.35;4.88;;;10.50;99.90;;;;;;4969610;28;20153;-67
2022/06/03 01:16:38;;;;;;;7.28;4.90;;;10.40;99.90;;;;;;4969155;28;20149;-67
2022/06/03 01:19:33;;;;;;;6.05;4.55;;;10.30;99.90;;;;;;4970259;28;20058;-67
2022/06/03 01:22:16;;;;;;;5.53;4.60;;;10.40;99.90;;;;;;4971447;28;20082;-67
2022/06/03 01:25:10;;;;;;;7.00;4.60;;;10.40;99.90;;;;;;4990561;28;20058;-67
2022/06/03 01:28:09;;;;;;;7.18;4.88;;;10.50;99.90;;;;;;5013594;28;20054;-67
2022/06/03 01:31:10;;;;;;;5.72;4.60;;;10.50;99.90;;;;;;5009975;28;20141;-67
2022/06/03 01:34:00;;;;;;;9.07;5.10;;;10.50;99.90;;;;;;5024509;28;20098;-67
2022/06/03 01:36:31;;;;;;;;;;;10.40;99.90;;;;;;5030812;28;20053;-67
2022/06/03 01:39:00;;;;;;;7.53;5.05;;;10.30;99.90;;;;;;5048265;28;19924;-67
2022/06/03 01:41:56;;;;;;;6.95;5.03;;;10.10;99.90;;;;;;5065901;28;20105;-67
2022/06/03 01:44:51;;;;;;;7.10;4.80;;;10.20;99.90;;;;;;5049543;28;20080;-67
2022/06/03 01:47:46;;;;;;;7.90;5.10;;;10.00;99.90;;;;;;5055177;28;20092;-67
2022/06/03 01:50:48;;;;;;;5.82;4.93;;;10.10;99.90;;;;;;5048132;28;20084;-67
2022/06/03 01:53:23;;;;;;;5.32;4.82;;;10.20;99.90;;;;;;5048173;28;20040;-67
2022/06/03 01:56:26;;;;;;;8.30;4.90;;;10.20;99.90;;;;;;5048221;28;20045;-67
2022/06/03 01:59:02;;;;;;;8.75;5.75;;;10.20;99.90;;;;;;5048264;28;20113;-67
2022/06/03 02:02:05;;;;;;;6.43;5.38;;;10.30;99.90;;;;;;5048955;28;20108;-67
2022/06/03 02:04:55;;;;;;;5.85;4.80;;;10.30;99.90;;;;;;5048161;28;20095;-67
2022/06/03 02:07:37;;;;;;;6.55;5.03;;;10.30;99.90;;;;;;5047542;28;20052;-67
2022/06/03 02:10:41;;;;;;;7.68;5.00;;;10.20;99.90;;;;;;5047947;28;20041;-67
2022/06/03 02:13:39;;;;;;;8.20;5.43;;;10.30;99.90;;;;;;5048942;28;20072;-67
2022/06/03 02:16:38;;;;;;;9.20;6.00;;;10.30;99.90;;;;;;5048520;28;20049;-67
2022/06/03 02:19:34;;;;;;;6.80;5.18;;;10.20;99.90;;;;;;5065455;28;20080;-67
2022/06/03 02:22:02;;;;;;;6.63;4.85;;;10.10;99.90;;;;;;5065547;28;20049;-67
2022/06/03 02:24:56;;;;;;;5.07;4.57;;;10.20;99.90;;;;;;5042893;28;20050;-67
2022/06/03 02:27:49;;;;;;;8.00;5.43;;;10.00;99.90;;;;;;5038796;28;20060;-67
2022/06/03 02:30:27;;;;;;;6.10;4.82;;;9.90;99.90;;;;;;5048130;28;20053;-67
2022/06/03 02:33:15;;;;;;;6.85;5.25;;;9.80;99.90;;;;;;5047609;28;20099;-67
2022/06/03 02:36:11;;;;;;;7.95;5.22;;;9.70;99.90;;;;;;5065380;28;20152;-67
2022/06/03 02:39:03;;;;;;;6.55;5.47;;;9.70;99.90;;;;;;5048053;28;20528;-67
2022/06/03 02:41:52;;;;;;;8.88;5.60;;;9.80;99.90;;;;;;5064688;28;20168;-67
2022/06/03 02:44:53;;;;;;;8.68;5.75;;;9.90;99.90;;;;;;5050919;28;20061;-67
2022/06/03 02:47:37;;;;;;;8.15;6.22;;;9.90;99.90;;;;;;5003532;28;20057;-67
2022/06/03 02:50:21;;;;;;;7.03;5.60;;;10.10;99.90;;;;;;4987094;28;20070;-67
2022/06/03 02:53:01;;;;;;;7.15;5.88;;;9.90;99.90;;;;;;5002918;28;20046;-67
2022/06/03 02:55:42;;;;;;;8.75;5.65;;;9.90;99.90;;;;;;4988090;28;20527;-67
2022/06/03 02:58:34;;;;;;;6.72;5.55;;;9.80;99.90;;;;;;5004173;28;20104;-67
2022/06/03 03:01:24;;;;;;;7.43;5.50;;;9.70;99.90;;;;;;5004105;28;20101;-66
2022/06/03 03:04:01;;;;;;;;;;;9.60;99.90;;;;;;5003464;28;20126;-67
2022/06/03 03:06:46;;;;;;;7.18;6.15;;;9.40;99.90;;;;;;5019322;28;19953;-67
2022/06/03 03:09:33;;;;;;;10.77;6.22;;;9.30;99.90;;;;;;5003327;28;20138;-67
2022/06/03 03:12:36;;;;;;;8.15;5.97;;;9.40;99.90;;;;;;5002772;28;20053;-67
2022/06/03 03:15:15;;;;;;;8.07;6.40;;;9.50;99.90;;;;;;4986710;28;20074;-67
2022/06/03 03:18:05;;;;;;;8.80;6.50;;;9.40;99.90;;;;;;4986585;28;20076;-67
2022/06/03 03:20:45;;;;;;;10.75;7.28;;;9.50;99.90;;;;;;5002653;28;20046;-67
2022/06/03 03:23:33;;;;;;;10.18;7.05;;;9.50;99.90;;;;;;5039016;28;20394;-67
2022/06/03 03:26:32;;;;;;;10.20;6.43;;;9.60;99.90;;;;;;5064519;28;20497;-67
2022/06/03 03:29:15;;;;;;;8.70;6.03;;;9.50;99.90;;;;;;5063558;28;20047;-67
2022/06/03 03:32:03;;;;;;;11.55;6.65;;;9.40;99.90;;;;;;5046424;28;20049;-67
2022/06/03 03:34:38;;;;;;;10.60;7.03;;;9.60;99.90;;;;;;5064137;28;20405;-67
2022/06/03 03:37:29;;;;;;;12.55;7.05;;;9.60;99.90;;;;;;5045802;28;20037;-67
2022/06/03 03:40:23;;;;;;;9.25;6.55;;;9.60;99.90;;;;;;5063707;28;20049;-67
2022/06/03 03:43:08;;;;;;;9.38;6.65;;;9.70;99.90;;;;;;5006951;28;20061;-67
2022/06/03 03:45:34;;;;;;;8.38;7.05;;;9.60;99.90;;;;;;5046547;28;20135;-67
2022/06/03 03:48:18;;;;;;;10.50;6.47;;;9.70;99.90;;;;;;5046224;28;20465;-67
2022/06/03 03:51:10;;;;;;;10.93;6.78;;;9.70;99.90;;;;;;5045921;28;20049;-67
2022/06/03 03:53:54;;;;;;;8.27;6.75;;;9.70;99.90;;;;;;5046477;28;20049;-67
2022/06/03 03:56:43;;;;;;;7.07;6.18;;;9.70;99.90;;;;;;5046088;28;20045;-67
2022/06/03 03:59:33;;;;;;;10.85;6.38;;;9.90;99.90;;;;;;5046137;28;20056;-67
2022/06/03 04:02:27;;;;;;;9.48;7.18;;;9.80;99.90;;;;;;5047134;28;20132;-67
2022/06/03 04:05:34;;;;;;;9.35;6.80;;;9.70;99.90;;;;;;5064905;28;20472;-67
2022/06/03 04:08:18;;;;;;;8.73;6.97;;;9.80;99.90;;;;;;5064838;28;20053;-67
2022/06/03 04:11:08;;;;;;;10.63;7.50;;;9.90;99.90;;;;;;5046733;28;20049;-67
2022/06/03 04:13:59;;;;;;;10.43;7.13;;;9.90;99.90;;;;;;5045957;28;20112;-67
2022/06/03 04:16:33;;;;;;;8.27;6.53;;;10.00;99.90;;;;;;5045820;28;20076;-67
2022/06/03 04:19:08;;;;;;;12.13;8.23;;;10.00;99.90;;;;;;5045847;28;20102;-67
2022/06/03 04:22:21;;;;;;;10.93;7.28;;;10.00;99.90;;;;;;5045998;28;20080;-67
2022/06/03 04:25:16;;;;;;;9.75;7.60;;;10.10;99.90;;;;;;5045036;28;20059;-67
2022/06/03 04:28:05;;;;;;;12.57;7.70;;;9.90;99.90;;;;;;5028777;28;20069;-67
2022/06/03 04:30:55;;;;;;;12.73;7.80;;;9.90;99.90;;;;;;5022046;28;20050;-67
2022/06/03 04:33:36;;;;;;;15.50;8.60;;;10.10;99.90;;;;;;5000291;28;20045;-67
2022/06/03 04:36:07;;;;;;;9.20;7.85;;;10.10;99.90;;;;;;5012141;28;20050;-67
2022/06/03 04:38:51;;;;;;;11.40;8.32;;;10.10;99.90;;;;;;5010818;28;20060;-67
2022/06/03 04:42:14;;;;;;;11.55;9.15;;;10.10;99.90;;;;;;5027528;28;20054;-67
2022/06/03 04:44:57;;;;;;;9.60;8.52;;;10.10;99.90;;;;;;4951470;29;20063;-67
2022/06/03 04:48:00;;;;;;;12.13;9.55;;;10.20;99.90;;;;;;4963128;28;20043;-67
2022/06/03 04:51:03;;;;;;;12.95;9.00;;;10.40;99.90;;;;;;4946888;29;20612;-67
2022/06/03 04:53:50;;;;;;;10.60;9.50;;;10.40;99.90;;;;;;4946421;29;20051;-66
2022/06/03 04:56:45;;;;;;;13.55;8.98;;;10.40;99.90;;;;;;4963572;28;20062;-67
2022/06/03 04:59:39;;;;;;;12.32;9.27;;;10.50;99.90;;;;;;4928496;28;20531;-67
2022/06/03 05:02:33;;;;;;;12.40;9.50;;;10.60;99.90;;;;;;4931573;28;20572;-66
2022/06/03 05:05:17;;;;;;;17.00;10.50;;;10.70;99.90;;;;;;4996683;28;20057;-69
2022/06/03 05:08:04;;;;;;;15.30;10.20;;;10.80;99.90;;;;;;4988425;28;20110;-70
2022/06/03 05:10:48;;;;;;;15.50;10.88;;;10.80;99.90;;;;;;4996319;28;20092;-70
2022/06/03 05:13:47;;;;;;;11.70;10.07;;;10.90;99.90;;;;;;5004980;28;20121;-71
2022/06/03 05:16:40;;;;;;;11.40;9.80;;;10.90;99.90;;;;;;5043990;28;20068;-70
2022/06/03 05:19:56;;;;;;;14.23;9.85;;;11.10;99.90;;;;;;5079793;28;20544;-71
2022/06/03 05:22:37;;;;;;;18.40;10.13;;;11.20;99.90;;;;;;5021384;28;20066;-70
2022/06/03 05:25:11;;;;;;;15.77;10.60;;;11.20;99.90;;;;;;5039349;28;20187;-70
2022/06/03 05:28:17;;;;;;;13.05;9.50;;;11.30;99.90;;;;;;5060919;28;20045;-70
2022/06/03 05:30:47;;;;;;;12.93;10.23;;;11.50;99.90;;;;;;5023851;28;20133;-70
2022/06/03 05:33:43;;;;;;;12.02;9.82;;;11.50;99.90;;;;;;5027744;28;20041;-69
2022/06/03 05:36:52;;;;;;;15.70;10.05;;;11.50;99.90;;;;;;5058640;28;20120;-69
2022/06/03 05:39:33;;;;;;;16.85;11.82;;;11.60;99.90;;;;;;5056786;28;20061;-69
2022/06/03 05:45:20;;;;;;;16.00;10.95;;;11.70;99.90;;;;;;5023221;28;20048;-69
2022/06/03 05:47:56;;;;;;;16.10;10.82;;;11.80;99.90;;;;;;5058311;28;20045;-69
2022/06/03 05:50:40;;;;;;;15.05;10.75;;;12.00;99.90;;;;;;5057610;28;20545;-70
2022/06/03 05:53:18;;;;;;;13.57;10.98;;;11.90;99.90;;;;;;5058769;28;20103;-68
2022/06/03 05:56:27;;;;;;;12.85;10.20;;;12.10;99.90;;;;;;5024685;28;20073;-69
2022/06/03 05:58:59;;;;;;;13.77;10.63;;;12.10;99.90;;;;;;5050011;28;20121;-68
2022/06/03 06:01:27;;;;;;;14.63;10.73;;;12.00;99.90;;;;;;5031317;28;20244;-69
2022/06/03 06:04:17;;;;;;;14.55;11.73;;;12.10;99.90;;;;;;5042024;28;20054;-68
2022/06/03 06:07:20;;;;;;;14.50;11.60;;;12.20;99.90;;;;;;5059557;28;20048;-69
2022/06/03 06:10:11;;;;;;;14.13;11.25;;;12.20;99.90;;;;;;5047755;28;20380;-69
2022/06/03 06:12:52;;;;;;;15.73;10.75;;;12.30;99.90;;;;;;5062759;28;20041;-68
2022/06/03 06:15:59;;;;;;;15.45;10.60;;;12.40;99.90;;;;;;5047109;28;20548;-70
2022/06/03 06:18:50;;;;;;;15.18;13.10;;;12.50;99.90;;;;;;4994246;28;20595;-67
2022/06/03 06:21:29;;;;;;;11.73;10.55;;;12.60;99.90;;;;;;4990683;28;20074;-67
2022/06/03 06:24:35;;;;;;;13.98;11.13;;;12.60;99.90;;;;;;4972770;28;20116;-67
2022/06/03 06:27:31;;;;;;;12.75;9.63;;;12.70;99.90;;;;;;4996653;28;20053;-67
2022/06/03 06:30:34;;;;;;;14.70;8.73;;;12.80;99.90;;;;;;4992450;28;20046;-67
2022/06/03 06:33:24;;;;;;;17.08;10.55;;;12.80;99.90;;;;;;4983038;28;20526;-67
2022/06/03 06:36:05;;;;;;;14.68;9.73;;;13.00;99.90;;;;;;4974438;28;20046;-67
2022/06/03 06:38:45;;;;;;;15.52;10.35;;;13.00;99.90;;;;;;4999901;28;20046;-67
2022/06/03 06:41:11;;;;;;;12.07;9.75;;;13.20;99.90;;;;;;4974237;28;20057;-71
2022/06/03 06:43:52;;;;;;;13.88;9.23;;;13.30;99.90;;;;;;4987522;28;20058;-67
2022/06/03 06:46:34;;;;;;;11.73;8.43;;;13.30;99.90;;;;;;4974053;28;20054;-63
2022/06/03 06:49:22;;;;;;;13.55;9.50;;;13.30;99.90;;;;;;4981412;28;20645;-62
2022/06/03 06:51:51;;;;;;;13.93;8.60;;;13.40;99.90;;;;;;4972518;28;20050;-62
2022/06/03 06:54:29;;;;;;;10.50;8.00;;;13.50;99.90;;;;;;5016081;28;20148;-61
2022/06/03 06:57:24;;;;;;;12.38;8.20;;;13.60;99.90;;;;;;5066015;28;20469;-61
2022/06/03 07:00:02;;;;;;;9.93;8.23;;;13.70;99.90;;;;;;5031231;28;20072;-62
2022/06/03 07:02:31;;;;;;;9.93;8.40;;;13.90;99.90;;;;;;5043858;28;20053;-61
2022/06/03 07:05:27;;;;;;;9.07;7.95;;;14.00;99.90;;;;;;5028099;28;20056;-61
2022/06/03 07:07:56;;;;;;;10.82;6.72;;;14.00;99.90;;;;;;5070408;28;20068;-61
2022/06/03 07:10:27;;;;;;;10.60;6.80;;;14.10;99.90;;;;;;5053914;28;20052;-61
2022/06/03 07:13:21;;;;;;;10.93;6.95;;;14.00;99.90;;;;;;5049190;28;20041;-61
2022/06/03 07:16:01;;;;;;;14.02;7.50;;;14.20;99.90;;;;;;5056740;28;20055;-61
2022/06/03 07:21:30;;;;;;;8.80;6.97;;;14.30;99.90;;;;;;5031141;28;20136;-62
2022/06/03 07:24:05;;;;;;;11.40;6.90;;;14.30;99.90;;;;;;5039770;28;20057;-63
2022/06/03 07:26:39;;;;;;;10.70;6.65;;;14.40;99.90;;;;;;5061546;28;20044;-62
2022/06/03 07:29:20;;;;;;;8.13;6.70;;;14.50;99.90;;;;;;5041272;28;20053;-64
2022/06/03 07:32:12;;;;;;;13.88;7.00;;;14.50;99.90;;;;;;5062459;28;20059;-64
2022/06/03 07:34:51;;;;;;;10.68;6.93;;;14.60;99.90;;;;;;5033975;28;20057;-64
2022/06/03 07:37:38;;;;;;;12.85;7.70;;;14.70;99.90;;;;;;5043154;28;20080;-64
2022/06/03 07:40:11;;;;;;;7.47;6.40;;;14.80;99.90;;;;;;5055672;28;20102;-64
2022/06/03 07:42:57;;;;;;;7.43;6.68;;;14.80;99.90;;;;;;5054620;28;20064;-62
2022/06/03 07:45:26;;;;;;;10.27;6.88;;;14.80;99.90;;;;;;5043493;28;20113;-62
2022/06/03 07:48:00;;;;;;;11.13;7.20;;;15.10;99.90;;;;;;5051648;28;20049;-63
2022/06/03 07:50:28;;;;;;;8.60;6.60;;;15.00;99.90;;;;;;5028297;28;20189;-62
2022/06/03 07:53:00;;;;;;;9.05;6.13;;;15.10;99.90;;;;;;5057629;28;20047;-64
2022/06/03 07:55:30;;;;;;;10.52;6.47;;;15.20;99.90;;;;;;5052146;28;20052;-63
2022/06/03 07:58:05;;;;;;;8.43;7.20;;;15.30;99.90;;;;;;5044296;28;20056;-64
2022/06/03 08:00:38;;;;;;;9.68;7.40;;;15.30;99.90;;;;;;5039073;28;20049;-64
2022/06/03 08:03:17;;;;;;;10.65;6.80;;;15.40;99.90;;;;;;5052354;28;20047;-64
2022/06/03 08:05:46;;;;;;;8.03;6.00;;;15.50;99.90;;;;;;5054255;28;20067;-64
2022/06/03 08:11:06;;;;;;;9.45;6.15;;;15.60;99.90;;;;;;5030929;28;20144;-64
2022/06/03 08:13:41;;;;;;;7.93;6.32;;;15.70;99.90;;;;;;5058452;28;20045;-64
2022/06/03 08:16:29;;;;;;;9.55;5.90;;;15.90;99.90;;;;;;5032867;28;20045;-63
2022/06/03 08:19:12;;;;;;;8.82;6.40;;;16.00;99.90;;;;;;5063982;28;20040;-63
2022/06/03 08:21:46;;;;;;;10.38;6.70;;;16.10;99.90;;;;;;5050345;28;20051;-64
2022/06/03 08:24:22;;;;;;;9.90;6.63;;;16.20;99.90;;;;;;5029951;28;20055;-64
2022/06/03 08:26:56;;;;;;;9.50;7.28;;;16.20;99.90;;;;;;5030996;28;20045;-63
2022/06/03 08:29:46;;;;;;;8.63;5.82;;;16.20;99.90;;;;;;5041173;28;20300;-63
2022/06/03 08:32:16;;;;;;;7.43;6.33;;;16.50;99.90;;;;;;5030890;28;20056;-63
2022/06/03 08:34:48;;;;;;;8.65;6.35;;;16.50;99.90;;;;;;5035704;28;20288;-64
2022/06/03 08:37:19;;;;;;;9.00;7.00;;;16.50;99.90;;;;;;5029147;28;20045;-63
2022/06/03 08:39:47;;;;;;;8.00;6.88;;;16.70;99.90;;;;;;5058308;28;20045;-64
2022/06/03 08:42:47;;;;;;;8.13;6.35;;;16.60;99.90;;;;;;5035076;28;20336;-63
2022/06/03 08:45:39;;;;;;;10.35;6.82;;;16.70;99.90;;;;;;5033655;28;20536;-63
2022/06/03 08:48:14;;;;;;;12.68;6.32;;;16.60;99.90;;;;;;5052892;28;20064;-63
2022/06/03 08:51:06;;;;;;;9.05;5.85;;;16.60;99.90;;;;;;5054687;28;20170;-64
2022/06/03 08:53:49;;;;;;;7.82;5.95;;;16.70;99.90;;;;;;5067363;28;20051;-63
2022/06/03 08:56:23;;;;;;;12.15;6.80;;;16.80;99.90;;;;;;5056902;28;20048;-63
2022/06/03 08:58:56;;;;;;;7.93;5.85;;;16.90;99.90;;;;;;5055014;28;20088;-63
2022/06/03 09:01:27;;;;;;;8.93;6.30;;;16.90;99.90;;;;;;5051851;28;20056;-64
2022/06/03 09:04:11;;;;;;;8.90;5.88;;;17.00;99.90;;;;;;5066811;28;20045;-64
2022/06/03 09:06:58;;;;;;;9.50;6.93;;;17.10;99.90;;;;;;5031523;28;20045;-64
2022/06/03 09:09:43;;;;;;;9.40;6.53;;;17.10;99.90;;;;;;5039540;28;20599;-63
2022/06/03 09:12:31;;;;;;;9.05;5.82;;;17.30;99.90;;;;;;5031691;28;20384;-63
2022/06/03 09:15:10;;;;;;;7.82;6.10;;;17.50;99.90;;;;;;5073630;28;20037;-63
2022/06/03 09:17:59;;;;;;;9.57;6.75;;;17.50;99.90;;;;;;5049501;28;20072;-64
2022/06/03 09:20:39;;;;;;;9.85;6.82;;;17.60;99.90;;;;;;5049752;28;20049;-64
2022/06/03 09:23:06;;;;;;;;;;;17.70;99.90;;;;;;5053152;28;20470;-64
2022/06/03 09:25:36;;;;;;;8.63;5.38;;;17.60;99.90;;;;;;5034887;28;20087;-62
2022/06/03 09:28:07;;;;;;;5.75;5.20;;;17.80;99.90;;;;;;5056369;28;20044;-63
2022/06/03 09:30:38;;;;;;;8.70;5.32;;;17.90;99.90;;;;;;5032480;28;20061;-64
2022/06/03 09:33:07;;;;;;;8.75;5.45;;;17.90;99.90;;;;;;5054035;28;20048;-62
2022/06/03 09:35:36;;;;;;;7.03;4.82;;;17.90;99.90;;;;;;5030231;28;20084;-63
2022/06/03 09:38:04;;;;;;;8.07;4.38;;;18.00;99.90;;;;;;5042021;28;20040;-63
2022/06/03 09:40:35;;;;;;;7.72;5.07;;;18.10;99.90;;;;;;5034248;28;20057;-62
2022/06/03 09:43:28;;;;;;;11.95;6.30;;;18.30;99.90;;;;;;5071378;28;20072;-62
2022/06/03 09:45:58;;;;;;;6.47;5.68;;;18.20;99.90;;;;;;5044556;28;20057;-62
2022/06/03 09:48:29;;;;;;;6.05;4.85;;;18.30;99.90;;;;;;5070358;28;20378;-62
2022/06/03 09:50:58;;;;;;;5.72;4.07;;;18.40;99.90;;;;;;5044474;28;20068;-62
2022/06/03 09:53:30;;;;;;;4.88;4.18;;;18.50;99.90;;;;;;5061377;28;20048;-62
2022/06/03 09:56:00;;;;;;;6.15;3.95;;;18.50;99.90;;;;;;5053569;28;20056;-62
2022/06/03 09:58:30;;;;;;;5.45;3.33;;;18.50;99.90;;;;;;5052174;28;20316;-62
2022/06/03 10:00:58;;;;;;;4.72;3.40;;;18.50;99.90;;;;;;5045222;28;20074;-62
2022/06/03 10:03:25;;;;;;;6.38;3.80;;;18.50;99.90;;;;;;5069590;28;20037;-62
2022/06/03 10:05:54;;;;;;;6.82;4.15;;;18.50;99.90;;;;;;5031544;28;20049;-62
2022/06/03 10:08:28;;;;;;;8.25;4.80;;;18.50;99.90;;;;;;5055250;28;20120;-62
2022/06/03 10:13:42;;;;;;;6.50;4.00;;;18.60;99.90;;;;;;5049800;28;20053;-62
2022/06/03 10:16:10;;;;;;;5.68;3.90;;;18.70;99.90;;;;;;5016911;28;20057;-62
2022/06/03 10:18:39;;;;;;;4.90;3.88;;;18.80;99.90;;;;;;5038439;28;20087;-62
2022/06/03 10:21:10;;;;;;;4.78;3.47;;;18.80;99.90;;;;;;5035598;28;20045;-66
2022/06/03 10:23:45;;;;;;;6.50;4.28;;;18.80;99.90;;;;;;5038386;28;20113;-62
2022/06/03 10:26:22;;;;;;;10.60;4.25;;;18.80;99.90;;;;;;5047229;28;20060;-63
2022/06/03 10:28:50;;;;;;;4.20;3.60;;;18.90;99.90;;;;;;5058070;28;20109;-63
2022/06/03 10:31:19;;;;;;;5.13;3.25;;;18.90;99.90;;;;;;5055163;28;20059;-61
2022/06/03 10:34:00;;;;;;;5.23;3.33;;;19.00;99.90;;;;;;5049225;28;20095;-60
2022/06/03 10:36:35;;;;;;;5.38;3.72;;;19.00;99.90;;;;;;5027870;28;20057;-60
2022/06/03 10:39:02;;;;;;;3.92;3.53;;;19.10;99.90;;;;;;5038075;28;20068;-62
2022/06/03 10:41:38;;;;;;;7.88;4.43;;;19.10;99.90;;;;;;5030261;28;20083;-62
2022/06/03 10:44:23;;;;;;;7.18;3.80;;;19.30;99.90;;;;;;5039427;28;20074;-62
2022/06/03 10:46:55;;;;;;;7.40;4.47;;;19.30;99.90;;;;;;5038770;28;20063;-62
2022/06/03 10:49:22;;;;;;;5.40;4.05;;;19.40;99.90;;;;;;5038249;28;20282;-62
2022/06/03 11:02:52;;;;;;;4.25;3.58;;;19.70;99.90;;;;;;5063404;28;20059;-62
2022/06/03 11:05:24;;;;;;;5.57;3.30;;;19.90;99.90;;;;;;5043989;28;20041;-62
2022/06/03 11:08:08;;;;;;;4.25;3.00;;;19.80;99.90;;;;;;5045556;28;20052;-62
2022/06/03 11:10:45;;;;;;;8.85;4.43;;;20.00;99.90;;;;;;5054592;28;20041;-63
2022/06/03 11:13:33;;;;;;;4.15;3.80;;;19.90;99.90;;;;;;5031255;28;20056;-62
2022/06/03 11:16:21;;;;;;;6.30;3.40;;;20.10;99.90;;;;;;5050468;28;20066;-62
2022/06/03 11:18:47;;;;;;;5.35;3.50;;;20.20;99.90;;;;;;5066272;28;20045;-63
2022/06/03 11:21:25;;;;;;;5.70;4.07;;;20.30;99.90;;;;;;5049614;28;20052;-64
2022/06/03 11:23:57;;;;;;;6.10;3.80;;;20.40;99.90;;;;;;5044852;28;20041;-64
2022/06/03 11:26:33;;;;;;;6.78;3.85;;;20.40;99.90;;;;;;5045071;28;20045;-64
2022/06/03 11:29:13;;;;;;;4.68;3.35;;;20.50;99.90;;;;;;5044848;28;20075;-64
2022/06/03 11:31:46;;;;;;;6.47;4.13;;;20.50;99.90;;;;;;5033977;28;20056;-64
2022/06/03 11:34:38;;;;;;;5.53;4.40;;;20.50;99.90;;;;;;5044562;28;20051;-64
2022/06/03 11:37:12;;;;;;;4.05;3.75;;;20.60;99.90;;;;;;5038828;28;20339;-64
2022/06/03 11:39:48;;;;;;;5.07;3.72;;;20.50;99.90;;;;;;5042024;28;20084;-64
2022/06/03 11:42:27;;;;;;;15.13;4.25;;;20.60;99.90;;;;;;5038250;28;20079;-64
2022/06/03 11:44:58;;;;;;;5.57;3.17;;;20.70;99.90;;;;;;5025657;28;20044;-64
2022/06/03 11:47:49;;;;;;;7.60;3.58;;;20.70;99.90;;;;;;5048806;28;20061;-64
2022/06/03 11:50:18;;;;;;;6.25;3.30;;;21.00;99.90;;;;;;5039441;28;20117;-65
2022/06/03 11:52:46;;;;;;;3.47;3.03;;;21.00;99.90;;;;;;5008867;28;20045;-64
2022/06/03 11:55:12;;;;;;;22.08;4.47;;;20.90;99.90;;;;;;5031126;28;20264;-64
2022/06/03 11:57:46;;;;;;;15.38;4.40;;;21.00;99.90;;;;;;5041827;28;20543;-64
2022/06/03 12:00:19;;;;;;;14.93;4.10;;;21.20;99.90;;;;;;5032463;28;20056;-64
2022/06/03 12:03:19;;;;;;;11.88;4.22;;;21.20;99.90;;;;;;5031600;28;20069;-64
2022/06/03 12:05:51;;;;;;;4.38;3.35;;;21.30;99.90;;;;;;5026978;28;20057;-64
2022/06/03 12:08:36;;;;;;;4.88;3.63;;;21.20;99.90;;;;;;5008822;28;20436;-65
2022/06/03 12:13:14;;;;;;;3.63;3.30;;;21.20;99.90;;;;;;5030902;28;20049;-64
2022/06/03 12:14:22;;;;;;;5.28;3.40;;;21.10;99.90;;;;;;5048873;28;20423;-63
2022/06/03 12:16:55;;;;;;;5.20;3.88;;;21.30;99.90;;;;;;5040661;28;20041;-64
2022/06/03 12:19:48;;;;;;;4.45;3.47;;;21.20;99.90;;;;;;5049584;28;20060;-64
2022/06/03 12:22:17;;;;;;;4.43;3.40;;;21.30;99.90;;;;;;5041965;28;20095;-64
2022/06/03 12:24:45;;;;;;;4.35;2.80;;;21.40;99.90;;;;;;5046570;28;20316;-64
2022/06/03 12:27:24;;;;;;;3.22;2.92;;;21.50;99.90;;;;;;5033606;28;20056;-64
2022/06/03 12:30:19;;;;;;;6.83;3.83;;;21.40;99.90;;;;;;5027066;28;20037;-64
2022/06/03 12:32:56;;;;;;;4.28;3.50;;;21.60;99.90;;;;;;5064707;28;20059;-64
2022/06/03 12:35:48;;;;;;;5.88;3.63;;;21.50;99.90;;;;;;5040690;28;20041;-64
2022/06/03 12:38:20;;;;;;;6.13;3.55;;;21.50;99.90;;;;;;5031043;28;20073;-65
2022/06/03 12:40:57;;;;;;;3.60;3.30;;;21.80;99.90;;;;;;5042645;28;20052;-65
2022/06/03 12:43:29;;;;;;;5.28;3.08;;;21.90;99.90;;;;;;5024735;28;20060;-65
2022/06/03 12:46:10;;;;;;;9.10;4.10;;;22.00;99.90;;;;;;5055932;28;20049;-65
2022/06/03 12:48:48;;;;;;;4.20;3.00;;;22.10;99.90;;;;;;5011190;28;20061;-65
2022/06/03 12:51:26;;;;;;;3.95;3.03;;;22.30;99.90;;;;;;5033545;28;20110;-65
2022/06/03 12:54:19;;;;;;;3.08;2.72;;;22.30;99.90;;;;;;5055764;28;20404;-65
2022/06/03 12:56:51;;;;;;;4.35;3.20;;;22.60;99.90;;;;;;5030493;28;20077;-65
2022/06/03 12:59:29;;;;;;;5.60;3.35;;;22.80;99.90;;;;;;5012367;28;20110;-66
2022/06/03 13:02:10;;;;;;;3.72;3.00;;;22.90;99.90;;;;;;5022041;28;20049;-65
2022/06/03 13:04:55;;;;;;;5.75;3.53;;;22.90;99.90;;;;;;5059653;28;20052;-65
2022/06/03 13:07:27;;;;;;;5.15;3.08;;;22.90;99.90;;;;;;5059408;28;20090;-65
2022/06/03 13:10:07;;;;;;;4.38;3.20;;;23.00;99.90;;;;;;5028909;28;20048;-65
2022/06/03 13:12:34;;;;;;;4.68;3.28;;;23.20;99.90;;;;;;5032403;28;20068;-66
2022/06/03 13:15:35;;;;;;;3.67;2.90;;;23.20;99.90;;;;;;5037401;28;20069;-65
2022/06/03 13:18:18;;;;;;;3.50;2.85;;;23.20;99.90;;;;;;5000140;28;20065;-65
2022/06/03 13:20:47;;;;;;;4.38;3.10;;;23.30;99.90;;;;;;5001911;28;20109;-66
2022/06/03 13:23:34;;;;;;;4.20;3.25;;;23.60;99.90;;;;;;4994656;28;20058;-65
2022/06/03 13:26:27;;;;;;;6.03;3.33;;;23.70;99.90;;;;;;4997891;28;20046;-65
2022/06/03 13:29:02;;;;;;;3.10;2.72;;;24.00;99.40;;;;;;4973000;28;20053;-65
2022/06/03 13:31:50;;;;;;;4.72;2.80;;;24.40;99.70;;;;;;4974423;28;20050;-66
2022/06/03 13:34:41;;;;;;;3.67;2.88;;;25.00;99.90;;;;;;4961162;28;20201;-68
2022/06/03 13:37:29;;;;;;;20.48;5.00;;;25.70;97.90;;;;;;4951615;28;20054;-66
2022/06/03 13:39:54;;;;;;;34.00;7.10;;;26.20;97.70;;;;;;4991587;28;20073;-65
2022/06/03 13:45:20;;;;;;;3.10;2.60;;;27.50;97.30;;;;;;4943229;29;20047;-66
2022/06/03 13:47:50;;;;;;;4.53;2.92;;;28.20;96.10;;;;;;4922362;29;20071;-66
2022/06/03 13:50:18;;;;;;;3.25;2.60;;;28.60;93.70;;;;;;4930604;29;20087;-66
2022/06/03 13:52:46;;;;;;;2.85;2.50;;;29.20;91.40;;;;;;4932671;28;20051;-66
2022/06/03 13:55:46;;;;;;;2.47;2.15;;;29.50;91.20;;;;;;4976562;28;20376;-66
2022/06/03 13:58:18;;;;;;;4.38;2.33;;;29.60;89.00;;;;;;4979495;28;20061;-66
2022/06/03 14:00:49;;;;;;;5.35;2.90;;;30.30;87.20;;;;;;4952741;28;20058;-66
2022/06/03 14:03:26;;;;;;;3.10;2.60;;;30.30;76.10;;;;;;4947662;28;20280;-65
2022/06/03 14:05:51;;;;;;;4.57;2.47;;;30.30;72.70;;;;;;4974536;28;20047;-66
2022/06/03 14:08:38;;;;;;;5.65;2.50;;;30.40;74.30;;;;;;4981630;28;20100;-65
2022/06/03 14:11:15;;;;;;;4.00;2.38;;;30.00;72.60;;;;;;4959447;28;20062;-66
2022/06/03 14:13:43;;;;;;;3.80;2.33;;;30.10;74.90;;;;;;4965670;28;20061;-66
2022/06/03 14:16:15;;;;;;;2.40;2.15;;;30.70;74.20;;;;;;4960856;28;20058;-66
2022/06/03 14:19:10;;;;;;;2.60;2.30;;;31.20;70.60;;;;;;4984054;28;20138;-64
2022/06/03 14:21:41;;;;;;;3.38;2.35;;;31.00;67.30;;;;;;4971152;28;20068;-64
2022/06/03 14:24:32;;;;;;;5.65;2.28;;;31.50;67.90;;;;;;5019312;28;20105;-64
2022/06/03 14:27:17;;;;;;;3.08;2.40;;;31.50;66.80;;;;;;5012263;28;20044;-65
2022/06/03 14:29:56;;;;;;;3.85;2.30;;;32.00;64.00;;;;;;5032536;28;20076;-64